Time;durP1;ratioP1;P1;durP2;ratioP2;P2;SDS_P1;SDS_P2;PMS_P1;PMS_P2;Temp;Humidity;BMP_temperature;BMP_pressure;BME280_temperature;BME280_humidity;BME280_pressure;Samples;Min_cycle;Max_cycle;Signal;HPM_P1;HPM_P2
2022/08/02 00:01:52;;;;;;;10.50;7.53;;;;;;;20.70;92.71;99617.80;1714957;83;21215;-69
2022/08/02 00:04:19;;;;;;;8.13;6.78;;;;;;;20.67;92.67;99606.53;1715004;83;21069;-67
2022/08/02 00:06:46;;;;;;;16.75;7.92;;;;;;;20.67;92.33;99610.05;1715184;83;21057;-68
2022/08/02 00:09:13;;;;;;;12.25;7.87;;;;;;;20.66;92.61;99608.36;1714987;83;21005;-68
2022/08/02 00:11:41;;;;;;;9.33;6.95;;;;;;;20.64;92.91;99604.97;1714906;83;21125;-71
2022/08/02 00:14:08;;;;;;;11.45;7.30;;;;;;;20.62;92.45;99596.23;1715034;83;21210;-67
2022/08/02 00:16:34;;;;;;;11.50;7.55;;;;;;;20.63;92.64;99597.91;1716101;82;21116;-68
2022/08/02 00:19:01;;;;;;;12.53;8.20;;;;;;;20.63;92.85;99604.59;1717824;83;21092;-68
2022/08/02 00:21:28;;;;;;;14.95;7.78;;;;;;;20.59;93.39;99599.19;1717662;83;21045;-69
2022/08/02 00:23:54;;;;;;;10.63;8.13;;;;;;;20.57;93.61;99609.17;1718006;83;21103;-69
2022/08/02 00:26:20;;;;;;;11.38;7.90;;;;;;;20.53;94.01;99608.54;1717763;83;21250;-68
2022/08/02 00:28:47;;;;;;;12.45;7.92;;;;;;;20.52;94.36;99605.98;1717878;83;21151;-67
2022/08/02 00:31:13;;;;;;;11.30;7.62;;;;;;;20.50;94.41;99605.30;1717996;83;21056;-67
2022/08/02 00:33:40;;;;;;;13.43;8.28;;;;;;;20.48;94.21;99607.26;1717794;83;21044;-68
2022/08/02 00:36:07;;;;;;;12.15;8.00;;;;;;;20.49;94.58;99608.94;1717959;83;21068;-68
2022/08/02 00:38:34;;;;;;;13.80;7.75;;;;;;;20.47;94.78;99610.40;1717964;83;21258;-68
2022/08/02 00:41:01;;;;;;;14.25;7.50;;;;;;;20.46;94.88;99610.55;1717711;83;21518;-67
2022/08/02 00:43:27;;;;;;;11.95;7.25;;;;;;;20.44;95.14;99610.67;1718032;83;21030;-68
2022/08/02 00:45:54;;;;;;;10.95;7.22;;;;;;;20.43;95.26;99609.45;1717663;83;21029;-68
2022/08/02 00:48:20;;;;;;;9.88;7.58;;;;;;;20.43;95.05;99615.68;1717797;83;21386;-67
2022/08/02 00:50:47;;;;;;;10.70;7.75;;;;;;;20.44;95.16;99611.17;1718123;83;21115;-68
2022/08/02 00:53:13;;;;;;;12.25;7.50;;;;;;;20.44;95.08;99619.20;1717738;83;21102;-67
2022/08/02 00:55:40;;;;;;;11.03;7.12;;;;;;;20.43;95.29;99617.48;1744587;82;21093;-67
2022/08/02 00:58:07;;;;;;;17.62;7.83;;;;;;;20.40;95.37;99609.23;1747854;82;21613;-69
2022/08/02 01:00:34;;;;;;;10.68;7.35;;;;;;;20.38;95.39;99607.18;1747578;82;21029;-68
2022/08/02 01:03:01;;;;;;;10.93;6.75;;;;;;;20.38;95.16;99610.35;1747569;82;21917;-67
2022/08/02 01:05:28;;;;;;;7.72;6.65;;;;;;;20.37;94.44;99605.50;1747529;82;21073;-67
2022/08/02 01:07:55;;;;;;;12.43;6.87;;;;;;;20.38;94.46;99602.33;1747794;82;21030;-67
2022/08/02 01:10:22;;;;;;;8.70;6.35;;;;;;;20.39;93.97;99597.36;1747414;82;21088;-69
2022/08/02 01:12:49;;;;;;;9.08;6.83;;;;;;;20.41;93.48;99588.72;1747688;82;21104;-68
2022/08/02 01:15:15;;;;;;;18.40;6.85;;;;;;;20.41;93.63;99596.73;1747473;82;21843;-68
2022/08/02 01:18:08;;;;;;;9.03;6.67;;;;;;;20.38;93.44;99590.30;1745244;80;21045;-68
2022/08/02 01:21:15;;;;;;;9.93;6.10;;;;;;;20.38;93.33;99590.30;1744866;82;21065;-67
2022/08/02 01:24:19;;;;;;;8.88;5.65;;;;;;;20.36;93.05;99597.14;1744933;82;21101;-69
2022/08/02 01:26:54;;;;;;;8.20;5.60;;;;;;;20.34;93.00;99592.41;1744786;82;21522;-69
2022/08/02 01:29:33;;;;;;;11.78;6.33;;;;;;;20.30;92.88;99595.82;1744807;82;21522;-69
2022/08/02 01:32:16;;;;;;;13.98;6.05;;;;;;;20.30;92.94;99593.64;1744874;82;20999;-67
2022/08/02 01:34:47;;;;;;;9.43;6.45;;;;;;;20.29;93.25;99592.80;1744685;82;21022;-68
2022/08/02 01:37:24;;;;;;;10.20;6.08;;;;;;;20.29;93.67;99593.27;1743699;82;21078;-68
2022/08/02 01:40:11;;;;;;;10.53;6.55;;;;;;;20.25;93.84;99591.36;1744895;82;21116;-69
2022/08/02 01:42:43;;;;;;;9.63;6.47;;;;;;;20.24;93.88;99588.31;1744306;82;21515;-68
2022/08/02 01:45:11;;;;;;;13.45;7.03;;;;;;;20.23;94.14;99587.97;1744582;82;22111;-68
2022/08/02 01:47:39;;;;;;;15.63;6.15;;;;;;;20.22;94.24;99582.28;1744629;82;21032;-68
2022/08/02 01:50:07;;;;;;;9.25;6.40;;;;;;;20.20;94.56;99578.89;1745191;82;21049;-68
2022/08/02 01:52:37;;;;;;;13.05;6.20;;;;;;;20.22;94.76;99584.95;1744933;82;21061;-68
2022/08/02 01:55:25;;;;;;;8.70;6.08;;;;;;;20.21;94.55;99581.91;1729494;82;21120;-68
2022/08/02 01:57:57;;;;;;;9.20;6.00;;;;;;;20.21;94.81;99576.56;1715219;83;21030;-68
2022/08/02 02:00:27;;;;;;;12.93;7.12;;;;;;;20.21;94.86;99579.73;1719084;82;21156;-69
2022/08/02 02:02:56;;;;;;;10.47;6.07;;;;;;;20.20;95.12;99577.55;1745056;82;21561;-69
2022/08/02 02:05:25;;;;;;;7.47;6.15;;;;;;;20.18;95.07;99574.16;1745354;82;21101;-69
2022/08/02 02:07:56;;;;;;;11.78;6.33;;;;;;;20.17;94.77;99571.11;1744707;82;21771;-67
2022/08/02 02:10:29;;;;;;;9.10;6.15;;;;;;;20.18;94.41;99570.15;1745068;82;21065;-68
2022/08/02 02:12:59;;;;;;;9.28;5.70;;;;;;;20.18;94.67;99566.14;1744490;82;21033;-67
2022/08/02 02:15:26;;;;;;;10.03;6.37;;;;;;;20.16;94.64;99565.42;1744913;82;21069;-68
2022/08/02 02:17:53;;;;;;;13.50;6.37;;;;;;;20.15;94.43;99566.87;1744849;80;21032;-67
2022/08/02 02:20:20;;;;;;;7.75;5.42;;;;;;;20.14;94.15;99558.02;1744936;82;21803;-68
2022/08/02 02:22:47;;;;;;;12.70;6.00;;;;;;;20.15;94.29;99557.03;1745082;82;20987;-69
2022/08/02 02:25:16;;;;;;;13.35;6.58;;;;;;;20.13;94.44;99557.67;1744768;82;21554;-70
2022/08/02 02:27:57;;;;;;;9.80;6.10;;;;;;;20.13;94.35;99559.02;1744861;82;20987;-68
2022/08/02 02:30:26;;;;;;;10.98;6.65;;;;;;;20.12;94.53;99561.31;1742099;82;21585;-70
2022/08/02 02:32:54;;;;;;;9.18;6.30;;;;;;;20.10;94.77;99556.58;1744692;82;21129;-70
2022/08/02 02:35:21;;;;;;;9.28;5.87;;;;;;;20.10;94.94;99552.58;1744700;82;21033;-67
2022/08/02 02:37:48;;;;;;;10.15;6.42;;;;;;;20.12;95.38;99553.29;1744889;82;21514;-68
2022/08/02 02:40:15;;;;;;;9.83;6.05;;;;;;;20.12;95.75;99550.62;1723799;81;21062;-68
2022/08/02 02:42:41;;;;;;;10.08;6.15;;;;;;;20.15;95.31;99553.52;1745136;82;21278;-68
2022/08/02 02:45:10;;;;;;;11.43;5.80;;;;;;;20.12;95.12;99549.28;1744811;82;21298;-67
2022/08/02 02:47:36;;;;;;;8.28;5.58;;;;;;;20.14;94.79;99554.02;1745150;82;21652;-69
2022/08/02 02:50:04;;;;;;;10.75;5.75;;;;;;;20.13;94.49;99555.00;1744810;82;21011;-69
2022/08/02 02:52:31;;;;;;;7.65;5.72;;;;;;;20.13;94.20;99555.00;1744927;82;21100;-68
2022/08/02 02:54:58;;;;;;;8.98;5.55;;;;;;;20.13;93.83;99552.33;1726794;82;21090;-69
2022/08/02 02:57:25;;;;;;;9.75;5.62;;;;;;;20.13;93.90;99549.66;1715237;83;21239;-69
2022/08/02 02:59:53;;;;;;;9.15;6.03;;;;;;;20.13;94.37;99548.32;1694282;83;21034;-68
2022/08/02 03:02:19;;;;;;;7.58;5.53;;;;;;;20.13;94.51;99548.32;1743205;82;21049;-68
2022/08/02 03:04:46;;;;;;;9.50;5.90;;;;;;;20.12;94.39;99547.95;1744853;82;21049;-68
2022/08/02 03:07:12;;;;;;;11.68;5.87;;;;;;;20.11;94.34;99552.45;1744450;82;21074;-67
2022/08/02 03:09:39;;;;;;;11.53;5.92;;;;;;;20.10;94.43;99561.43;1744557;82;21285;-68
2022/08/02 03:12:07;;;;;;;8.95;5.62;;;;;;;20.08;94.34;99562.55;1744734;82;21093;-68
2022/08/02 03:14:42;;;;;;;7.87;4.85;;;;;;;20.08;93.98;99563.88;1724148;82;21490;-69
2022/08/02 03:17:08;;;;;;;7.45;5.25;;;;;;;20.07;93.58;99560.38;1744742;81;21092;-67
2022/08/02 03:19:35;;;;;;;8.75;5.72;;;;;;;20.09;93.65;99568.27;1744959;82;21061;-68
2022/08/02 03:22:02;;;;;;;7.22;5.67;;;;;;;20.09;93.36;99564.26;1744955;82;21256;-69
2022/08/02 03:24:28;;;;;;;10.00;5.75;;;;;;;20.08;93.61;99567.89;1744911;82;21045;-69
2022/08/02 03:26:55;;;;;;;8.33;5.53;;;;;;;20.06;93.67;99568.51;1744911;82;21041;-68
2022/08/02 03:29:21;;;;;;;7.67;5.72;;;;;;;20.04;93.88;99565.15;1744681;82;21049;-69
2022/08/02 03:31:47;;;;;;;10.35;5.67;;;;;;;20.04;94.22;99565.15;1744812;82;21096;-68
2022/08/02 03:34:14;;;;;;;8.35;6.03;;;;;;;20.03;93.88;99566.11;1744859;82;21285;-68
2022/08/02 03:36:40;;;;;;;12.90;5.67;;;;;;;20.01;93.77;99566.23;1744777;82;21030;-69
2022/08/02 03:39:07;;;;;;;9.28;5.35;;;;;;;20.03;93.93;99572.79;1744758;82;21005;-68
2022/08/02 03:41:35;;;;;;;9.33;5.78;;;;;;;20.00;94.38;99567.72;1744910;82;21009;-68
2022/08/02 03:44:02;;;;;;;9.10;5.62;;;;;;;19.97;94.88;99570.17;1744882;82;21655;-70
2022/08/02 03:46:28;;;;;;;7.20;5.55;;;;;;;19.93;95.26;99570.06;1744635;82;21159;-69
2022/08/02 03:48:55;;;;;;;8.98;5.83;;;;;;;19.94;96.00;99568.23;1745303;82;21272;-70
2022/08/02 03:51:21;;;;;;;11.43;5.87;;;;;;;19.94;96.27;99563.72;1744994;82;21022;-68
2022/08/02 03:53:48;;;;;;;11.57;5.53;;;;;;;19.94;96.62;99560.21;1745271;82;21026;-69
2022/08/02 03:56:15;;;;;;;10.03;5.87;;;;;;;19.94;96.78;99566.89;1744798;82;21498;-69
2022/08/02 03:58:42;;;;;;;9.45;5.37;;;;;;;19.93;97.18;99570.56;1745122;82;21237;-69
2022/08/02 04:01:08;;;;;;;10.63;6.12;;;;;;;19.85;97.81;99580.07;1744767;82;21025;-69
2022/08/02 04:03:35;;;;;;;9.60;6.65;;;;;;;19.80;98.32;99570.73;1744952;82;21018;-70
2022/08/02 04:06:01;;;;;;;13.45;6.20;;;;;;;19.79;99.18;99574.39;1744843;82;20990;-69
2022/08/02 04:08:28;;;;;;;9.70;6.05;;;;;;;19.75;99.95;99580.47;1744682;82;21120;-70
2022/08/02 04:13:41;;;;;;;13.58;6.35;;;;;;;19.71;100.00;99589.71;1744646;82;20994;-68
2022/08/02 04:16:19;;;;;;;10.08;6.30;;;;;;;19.68;100.00;99587.27;1744935;82;21080;-68
2022/08/02 04:18:55;;;;;;;15.23;6.92;;;;;;;19.63;100.00;99593.00;1746994;80;21014;-69
2022/08/02 04:21:24;;;;;;;12.93;6.08;;;;;;;19.61;100.00;99599.45;1720337;82;21128;-69
2022/08/02 04:23:51;;;;;;;13.13;6.50;;;;;;;19.57;100.00;99602.01;1747910;82;21073;-69
2022/08/02 04:26:18;;;;;;;7.30;6.25;;;;;;;19.50;100.00;99601.17;1747518;82;20990;-69
2022/08/02 04:28:44;;;;;;;9.83;6.20;;;;;;;19.48;100.00;99603.11;1747690;82;21105;-69
2022/08/02 04:31:11;;;;;;;10.13;6.95;;;;;;;19.46;100.00;99605.09;1747852;82;21049;-69
2022/08/02 04:33:37;;;;;;;8.18;6.40;;;;;;;19.44;100.00;99605.70;1747507;82;21126;-70
2022/08/02 04:36:06;;;;;;;9.45;6.42;;;;;;;19.41;100.00;99607.27;1747691;82;21111;-70
2022/08/02 04:38:33;;;;;;;9.78;6.87;;;;;;;19.38;100.00;99610.20;1747478;82;21005;-68
2022/08/02 04:40:59;;;;;;;11.68;6.42;;;;;;;19.35;100.00;99615.80;1747913;82;21038;-69
2022/08/02 04:43:25;;;;;;;10.35;7.25;;;;;;;19.30;100.00;99612.64;1747565;82;22190;-69
2022/08/02 04:45:53;;;;;;;8.73;6.45;;;;;;;19.30;100.00;99616.64;1747823;82;21052;-69
2022/08/02 04:48:20;;;;;;;10.28;6.28;;;;;;;19.27;100.00;99612.90;1747732;82;21171;-67
2022/08/02 04:50:47;;;;;;;12.18;6.90;;;;;;;19.25;100.00;99622.84;1747478;82;21054;-69
2022/08/02 04:53:15;;;;;;;12.28;7.22;;;;;;;19.20;100.00;99619.71;1747888;82;21502;-71
2022/08/02 04:55:42;;;;;;;11.15;7.15;;;;;;;19.14;100.00;99620.20;1720674;82;21085;-70
2022/08/02 04:58:09;;;;;;;11.80;6.92;;;;;;;19.11;100.00;99614.63;1717824;83;21506;-69
2022/08/02 05:00:35;;;;;;;8.30;6.35;;;;;;;19.08;100.00;99618.39;1717714;83;21226;-69
2022/08/02 05:03:02;;;;;;;8.80;7.03;;;;;;;19.06;100.00;99616.33;1717648;83;21060;-70
2022/08/02 05:05:29;;;;;;;9.48;6.65;;;;;;;19.07;100.00;99621.17;1717487;83;21096;-69
2022/08/02 05:07:56;;;;;;;12.45;7.12;;;;;;;19.04;100.00;99622.77;1717567;83;21069;-69
2022/08/02 05:10:24;;;;;;;11.22;6.67;;;;;;;19.03;100.00;99618.41;1717444;83;21632;-70
2022/08/02 05:12:51;;;;;;;15.55;6.75;;;;;;;19.01;100.00;99613.68;1717728;83;22334;-69
2022/08/02 05:15:18;;;;;;;13.40;7.25;;;;;;;18.94;100.00;99614.66;1717881;83;21022;-69
2022/08/02 05:17:45;;;;;;;15.68;6.65;;;;;;;18.94;100.00;99612.48;1716960;82;21065;-69
2022/08/02 05:20:12;;;;;;;10.25;7.20;;;;;;;18.94;100.00;99612.48;1715277;83;21109;-70
2022/08/02 05:22:40;;;;;;;13.22;7.40;;;;;;;18.92;100.00;99611.26;1715295;83;21069;-69
2022/08/02 05:25:07;;;;;;;10.58;7.12;;;;;;;18.91;100.00;99612.24;1715194;83;21126;-70
2022/08/02 05:27:34;;;;;;;15.38;7.35;;;;;;;18.91;100.00;99611.37;1715255;83;21104;-69
2022/08/02 05:30:02;;;;;;;16.75;7.47;;;;;;;18.92;100.00;99611.26;1715332;83;21059;-71
2022/08/02 05:32:29;;;;;;;12.98;7.20;;;;;;;18.94;100.00;99603.14;1715366;83;21092;-70
2022/08/02 05:34:55;;;;;;;11.30;6.55;;;;;;;18.98;100.00;99608.11;1715414;83;21092;-69
2022/08/02 05:37:22;;;;;;;11.25;7.55;;;;;;;18.99;100.00;99612.45;1715528;83;21111;-73
2022/08/02 05:39:48;;;;;;;11.95;7.25;;;;;;;19.02;100.00;99609.53;1715249;83;21066;-70
2022/08/02 05:42:15;;;;;;;12.03;7.65;;;;;;;19.01;100.00;99612.34;1715349;83;21049;-70
2022/08/02 05:44:42;;;;;;;12.60;7.75;;;;;;;18.98;100.00;99608.56;1715688;83;21097;-68
2022/08/02 05:47:08;;;;;;;10.90;7.00;;;;;;;18.88;100.00;99601.80;1715316;83;21094;-69
2022/08/02 05:49:35;;;;;;;11.88;6.60;;;;;;;18.99;100.00;99607.13;1715696;83;21569;-68
2022/08/02 05:52:18;;;;;;;9.85;6.58;;;;;;;19.03;100.00;99608.58;1715346;83;21495;-69
2022/08/02 05:55:09;;;;;;;10.25;6.85;;;;;;;19.05;100.00;99609.31;1730204;82;21073;-69
2022/08/02 05:58:02;;;;;;;12.07;7.33;;;;;;;19.06;100.00;99609.66;1745166;82;21097;-70
2022/08/02 06:00:31;;;;;;;13.53;7.12;;;;;;;19.06;100.00;99606.98;1745058;82;21511;-70
2022/08/02 06:03:28;;;;;;;10.80;7.60;;;;;;;19.03;100.00;99609.91;1745232;82;21209;-70
2022/08/02 06:06:10;;;;;;;11.78;6.53;;;;;;;19.03;100.00;99617.08;1734081;82;21651;-69
2022/08/02 06:08:40;;;;;;;11.65;6.40;;;;;;;19.05;100.00;99621.31;1745266;82;21534;-70
2022/08/02 06:11:07;;;;;;;15.50;7.30;;;;;;;19.05;100.00;99619.14;1744976;82;21577;-70
2022/08/02 06:13:33;;;;;;;10.38;6.95;;;;;;;19.07;100.00;99623.84;1745233;80;21518;-69
2022/08/02 06:16:00;;;;;;;9.83;7.08;;;;;;;19.05;100.00;99614.65;1744872;80;21563;-69
2022/08/02 06:18:28;;;;;;;12.70;7.00;;;;;;;19.05;100.00;99615.98;1746253;81;21068;-70
2022/08/02 06:21:01;;;;;;;10.88;6.95;;;;;;;19.04;100.00;99612.93;1747399;82;21093;-70
2022/08/02 06:23:28;;;;;;;9.68;7.15;;;;;;;19.00;100.00;99600.83;1744806;82;21565;-70
2022/08/02 06:25:58;;;;;;;13.85;7.47;;;;;;;18.97;100.00;99601.05;1747419;82;21573;-68
2022/08/02 06:28:25;;;;;;;10.98;7.55;;;;;;;18.97;100.00;99594.39;1720719;82;21203;-70
2022/08/02 06:30:52;;;;;;;13.05;7.35;;;;;;;19.00;100.00;99592.83;1747449;82;21047;-69
2022/08/02 06:33:18;;;;;;;14.28;7.35;;;;;;;19.02;100.00;99585.52;1747877;82;21065;-69
2022/08/02 06:36:15;;;;;;;13.62;7.10;;;;;;;19.04;100.00;99576.91;1747451;82;20998;-69
2022/08/02 06:39:04;;;;;;;8.80;6.92;;;;;;;19.07;100.00;99579.80;1748151;82;21046;-69
2022/08/02 06:41:41;;;;;;;11.60;7.28;;;;;;;19.08;100.00;99577.02;1747741;82;21832;-69
2022/08/02 06:44:09;;;;;;;11.55;7.47;;;;;;;19.12;100.00;99585.64;1747200;82;21557;-69
2022/08/02 06:46:36;;;;;;;8.40;6.87;;;;;;;19.15;100.00;99587.21;1747924;82;21037;-70
2022/08/02 06:49:03;;;;;;;12.28;7.20;;;;;;;19.17;100.00;99583.94;1747889;82;21081;-69
2022/08/02 06:51:30;;;;;;;11.12;7.58;;;;;;;19.18;100.00;99580.28;1747900;81;21041;-69
2022/08/02 06:53:57;;;;;;;10.70;7.55;;;;;;;19.19;100.00;99586.84;1742786;82;21198;-69
2022/08/02 06:56:23;;;;;;;13.35;7.70;;;;;;;19.15;100.00;99588.55;1717680;83;21509;-71
2022/08/02 06:58:50;;;;;;;11.80;8.43;;;;;;;19.14;100.00;99591.71;1718241;83;21037;-71
2022/08/02 07:01:18;;;;;;;13.98;7.78;;;;;;;19.14;100.00;99590.84;1717752;83;21073;-70
2022/08/02 07:03:44;;;;;;;11.83;7.95;;;;;;;19.15;100.00;99597.89;1717788;83;21573;-70
2022/08/02 07:06:11;;;;;;;13.13;8.15;;;;;;;19.18;100.00;99606.48;1717710;83;21229;-70
2022/08/02 07:08:38;;;;;;;10.72;8.28;;;;;;;19.19;100.00;99607.34;1717783;83;21057;-69
2022/08/02 07:11:06;;;;;;;15.50;8.05;;;;;;;19.21;100.00;99613.38;1717717;83;21073;-70
2022/08/02 07:13:33;;;;;;;11.43;8.33;;;;;;;19.21;100.00;99616.05;1742334;82;21684;-70
2022/08/02 07:16:03;;;;;;;15.23;9.15;;;;;;;19.21;100.00;99617.39;1747885;82;21136;-70
2022/08/02 07:18:30;;;;;;;14.05;7.80;;;;;;;19.22;100.00;99620.44;1729089;81;21585;-69
2022/08/02 07:20:57;;;;;;;11.18;7.70;;;;;;;19.22;100.00;99623.95;1769112;81;21049;-70
2022/08/02 07:23:25;;;;;;;12.13;7.97;;;;;;;19.20;100.00;99627.72;1769343;81;21093;-71
2022/08/02 07:25:52;;;;;;;14.13;8.05;;;;;;;19.20;100.00;99626.38;1768592;81;21134;-69
2022/08/02 07:28:19;;;;;;;20.25;9.58;;;;;;;19.22;100.00;99631.11;1769066;79;21077;-71
2022/08/02 07:30:45;;;;;;;15.15;8.38;;;;;;;19.21;100.00;99628.06;1769207;81;21236;-71
2022/08/02 07:33:12;;;;;;;21.73;9.15;;;;;;;19.19;100.00;99630.04;1769114;79;21022;-70
2022/08/02 07:35:38;;;;;;;19.87;9.05;;;;;;;19.19;100.00;99634.05;1769022;81;21585;-68
2022/08/02 07:38:06;;;;;;;9.73;8.23;;;;;;;19.17;100.00;99630.16;1718654;81;21046;-70
2022/08/02 07:40:33;;;;;;;13.22;8.05;;;;;;;19.14;100.00;99626.41;1769193;79;21010;-70
2022/08/02 07:43:00;;;;;;;11.30;8.08;;;;;;;19.07;100.00;99627.38;1769353;81;21175;-70
2022/08/02 07:45:26;;;;;;;16.62;8.60;;;;;;;19.03;100.00;99633.93;1769136;81;21069;-71
2022/08/02 07:47:53;;;;;;;11.05;7.58;;;;;;;18.99;100.00;99639.14;1769428;81;21093;-70
2022/08/02 07:50:20;;;;;;;10.40;7.30;;;;;;;18.96;100.00;99634.06;1769304;81;21049;-69
2022/08/02 07:52:48;;;;;;;11.43;7.83;;;;;;;18.94;100.00;99625.33;1768913;81;21053;-69
2022/08/02 07:55:16;;;;;;;11.28;7.87;;;;;;;18.96;100.00;99626.05;1769120;81;21893;-70
2022/08/02 07:57:43;;;;;;;21.52;8.50;;;;;;;18.96;100.00;99627.39;1768805;81;21050;-70
2022/08/02 08:00:11;;;;;;;12.18;7.83;;;;;;;18.94;100.00;99640.00;1769114;81;21391;-70
2022/08/02 08:02:41;;;;;;;17.55;7.75;;;;;;;18.93;100.00;99635.62;1769003;81;22163;-71
2022/08/02 08:05:08;;;;;;;8.28;7.25;;;;;;;18.94;100.00;99637.33;1769437;81;21066;-69
2022/08/02 08:07:36;;;;;;;10.23;7.08;;;;;;;19.01;100.00;99638.54;1768941;81;22212;-71
2022/08/02 08:10:05;;;;;;;9.83;6.65;;;;;;;19.06;100.00;99645.68;1769087;81;21018;-70
2022/08/02 08:12:32;;;;;;;12.43;7.00;;;;;;;19.12;100.00;99650.16;1769064;81;21030;-70
2022/08/02 08:14:59;;;;;;;13.93;8.23;;;;;;;19.21;100.00;99660.09;1769284;81;21050;-68
2022/08/02 08:17:26;;;;;;;11.68;8.05;;;;;;;19.22;100.00;99669.33;1768968;81;21057;-70
2022/08/02 08:19:52;;;;;;;11.40;7.67;;;;;;;19.20;100.00;99677.09;1762971;81;21257;-71
2022/08/02 08:22:20;;;;;;;10.13;7.62;;;;;;;19.18;100.00;99676.38;1760928;81;21140;-70
2022/08/02 08:24:47;;;;;;;14.38;8.10;;;;;;;19.19;100.00;99675.41;1760905;81;21109;-71
2022/08/02 08:27:14;;;;;;;19.95;8.30;;;;;;;19.23;100.00;99680.84;1761293;81;21035;-71
2022/08/02 08:29:42;;;;;;;9.45;7.62;;;;;;;19.23;100.00;99687.52;1761340;81;21042;-71
2022/08/02 08:32:08;;;;;;;15.38;6.97;;;;;;;19.21;100.00;99691.66;1761503;81;21265;-70
2022/08/02 08:34:38;;;;;;;10.18;7.60;;;;;;;19.23;100.00;99680.84;1761289;81;21571;-71
2022/08/02 08:37:05;;;;;;;14.25;7.00;;;;;;;19.24;100.00;99676.73;1761475;81;21046;-70
2022/08/02 08:39:31;;;;;;;10.25;7.00;;;;;;;19.30;100.00;99680.71;1761448;80;21091;-70
2022/08/02 08:41:58;;;;;;;10.88;6.75;;;;;;;19.35;100.00;99675.88;1761045;81;21261;-70
2022/08/02 08:44:26;;;;;;;8.55;6.30;;;;;;;19.42;100.00;99670.39;1761407;81;21145;-70
2022/08/02 08:46:52;;;;;;;18.40;8.05;;;;;;;19.48;100.00;99663.20;1761247;81;21051;-72
2022/08/02 08:49:31;;;;;;;11.45;6.97;;;;;;;19.53;100.00;99665.98;1761727;81;21089;-69
2022/08/02 08:52:02;;;;;;;14.23;7.17;;;;;;;19.57;100.00;99670.11;1761223;81;21010;-70
2022/08/02 08:54:29;;;;;;;7.60;6.72;;;;;;;19.65;100.00;99673.02;1761408;81;21210;-70
2022/08/02 08:56:56;;;;;;;12.45;7.40;;;;;;;19.71;100.00;99672.52;1761206;81;21193;-70
2022/08/02 08:59:22;;;;;;;12.20;7.45;;;;;;;19.78;100.00;99669.70;1761421;81;21109;-71
2022/08/02 09:01:49;;;;;;;15.70;7.25;;;;;;;19.79;100.00;99670.08;1761221;81;21049;-68
2022/08/02 09:04:17;;;;;;;11.43;7.42;;;;;;;19.83;100.00;99668.86;1761454;81;21400;-70
2022/08/02 09:06:44;;;;;;;13.88;7.42;;;;;;;19.83;100.00;99658.17;1760979;80;21077;-71
2022/08/02 09:09:10;;;;;;;10.03;7.62;;;;;;;19.81;100.00;99665.47;1761204;81;21205;-71
2022/08/02 09:11:38;;;;;;;10.63;6.70;;;;;;;19.76;100.00;99658.33;1760827;81;21128;-70
2022/08/02 09:14:04;;;;;;;16.45;8.15;;;;;;;19.76;100.00;99658.33;1761062;81;21622;-70
2022/08/02 09:16:38;;;;;;;11.03;7.50;;;;;;;19.74;100.00;99658.94;1761024;81;21057;-70
2022/08/02 09:19:23;;;;;;;11.93;7.20;;;;;;;19.77;100.00;99657.83;1760236;81;21041;-70
2022/08/02 09:21:53;;;;;;;11.65;7.37;;;;;;;19.81;100.00;99661.45;1760533;81;21387;-69
2022/08/02 09:24:22;;;;;;;10.60;6.72;;;;;;;19.93;100.00;99665.42;1759788;81;21030;-69
2022/08/02 09:26:49;;;;;;;9.85;7.92;;;;;;;20.03;100.00;99669.01;1761286;81;21570;-71
2022/08/02 09:29:18;;;;;;;10.23;7.42;;;;;;;20.13;100.00;99671.28;1761213;81;21058;-71
2022/08/02 09:31:44;;;;;;;11.45;7.25;;;;;;;20.21;100.00;99668.80;1735382;81;21546;-70
2022/08/02 09:34:11;;;;;;;8.40;6.78;;;;;;;20.22;100.00;99665.16;1761200;80;21496;-68
2022/08/02 09:36:43;;;;;;;9.45;7.00;;;;;;;20.25;100.00;99663.55;1761081;81;21326;-69
2022/08/02 09:39:12;;;;;;;11.35;7.47;;;;;;;20.27;100.00;99669.62;1761424;81;21050;-70
2022/08/02 09:41:41;;;;;;;10.72;7.53;;;;;;;20.31;100.00;99669.73;1761132;81;21054;-71
2022/08/02 09:44:15;;;;;;;7.22;6.15;;;;;;;20.29;100.00;99675.69;1761687;81;21039;-69
2022/08/02 09:46:44;;;;;;;12.37;7.25;;;;;;;20.26;100.00;99667.91;1761398;81;21226;-70
2022/08/02 09:49:15;;;;;;;22.95;7.53;;;;;;;20.25;100.00;99672.91;1761661;81;21556;-68
2022/08/02 09:51:49;;;;;;;10.82;7.53;;;;;;;20.24;100.00;99677.88;1761185;81;21013;-70
2022/08/02 09:54:27;;;;;;;10.03;7.33;;;;;;;20.27;100.00;99681.66;1752207;81;21047;-70
2022/08/02 09:56:57;;;;;;;12.58;8.03;;;;;;;20.26;100.00;99678.60;1730771;82;21076;-70
2022/08/02 09:59:25;;;;;;;12.68;7.47;;;;;;;20.30;100.00;99680.05;1731063;82;21220;-70
2022/08/02 10:01:53;;;;;;;8.68;7.28;;;;;;;20.31;100.00;99681.77;1730665;82;21086;-69
2022/08/02 10:04:22;;;;;;;13.35;7.05;;;;;;;20.29;100.00;99681.04;1730726;82;21606;-71
2022/08/02 10:06:51;;;;;;;9.30;6.92;;;;;;;20.30;100.00;99682.72;1730695;81;21166;-70
2022/08/02 10:09:18;;;;;;;9.85;7.22;;;;;;;20.29;100.00;99690.40;1731027;82;21042;-70
2022/08/02 10:11:44;;;;;;;10.88;8.45;;;;;;;20.27;100.00;99687.00;1730668;82;21140;-70
2022/08/02 10:14:11;;;;;;;12.45;7.62;;;;;;;20.21;100.00;99696.03;1730712;82;21030;-71
2022/08/02 10:16:41;;;;;;;12.75;7.40;;;;;;;20.15;100.00;99698.70;1731194;82;21065;-71
2022/08/02 10:19:08;;;;;;;10.80;7.05;;;;;;;20.13;100.00;99692.67;1728206;82;22415;-69
2022/08/02 10:21:56;;;;;;;13.55;7.30;;;;;;;20.15;100.00;99694.70;1715037;81;21084;-69
2022/08/02 10:24:29;;;;;;;12.15;6.97;;;;;;;20.17;100.00;99690.08;1715217;83;21356;-70
2022/08/02 10:26:55;;;;;;;9.95;7.40;;;;;;;20.18;100.00;99690.45;1714961;83;21010;-70
2022/08/02 10:29:37;;;;;;;10.98;7.47;;;;;;;20.17;100.00;99692.75;1715267;83;21068;-70
2022/08/02 10:34:00;;;;;;;11.75;8.28;;;;;;;20.10;100.00;99688.89;1796675;79;22491;-70
2022/08/02 10:36:31;;;;;;;11.85;7.70;;;;;;;20.06;100.00;99692.80;1756470;80;21096;-69
2022/08/02 10:38:57;;;;;;;10.70;7.87;;;;;;;20.04;100.00;99689.44;1756460;81;21818;-69
2022/08/02 10:41:45;;;;;;;10.50;7.65;;;;;;;20.02;100.00;99697.56;1748161;82;21067;-70
2022/08/02 10:44:29;;;;;;;10.80;8.08;;;;;;;20.01;100.00;99693.67;1748417;81;21033;-69
2022/08/02 10:47:21;;;;;;;10.03;8.23;;;;;;;20.05;100.00;99693.78;1747956;82;21052;-71
2022/08/02 10:49:56;;;;;;;14.53;8.98;;;;;;;20.05;100.00;99695.13;1748082;82;21088;-70
2022/08/02 10:52:28;;;;;;;14.63;9.90;;;;;;;20.06;100.00;99692.80;1747844;82;21065;-70
2022/08/02 10:55:00;;;;;;;11.15;8.85;;;;;;;20.07;100.00;99695.35;1747941;82;21072;-70
2022/08/02 10:57:32;;;;;;;11.73;8.50;;;;;;;20.04;100.00;99694.78;1747712;81;21050;-70
2022/08/02 11:00:26;;;;;;;12.60;7.97;;;;;;;20.03;100.00;99693.06;1747964;82;21069;-69
2022/08/02 11:02:53;;;;;;;12.10;8.60;;;;;;;20.01;100.00;99697.19;1748024;82;21033;-69
2022/08/02 11:05:33;;;;;;;13.10;8.90;;;;;;;19.99;100.00;99693.83;1747786;82;21340;-68
2022/08/02 11:08:03;;;;;;;16.62;8.68;;;;;;;20.02;100.00;99699.40;1747961;82;21007;-69
2022/08/02 11:10:38;;;;;;;15.08;9.43;;;;;;;20.03;100.00;99701.08;1734368;82;21065;-69
2022/08/02 11:13:09;;;;;;;12.65;8.30;;;;;;;20.05;100.00;99697.80;1748048;82;21101;-70
2022/08/02 11:16:05;;;;;;;10.48;7.87;;;;;;;20.09;100.00;99697.91;1747855;82;21604;-69
2022/08/02 11:18:56;;;;;;;15.38;7.87;;;;;;;20.09;100.00;99693.90;1748296;81;21604;-71
2022/08/02 11:21:26;;;;;;;;;;;;;;;20.20;100.00;99696.52;1750354;82;21053;-69
2022/08/02 11:23:53;;;;;;;10.30;7.62;;;;;;;20.23;100.00;99690.91;1748181;82;20532;-70
2022/08/02 11:26:32;;;;;;;15.35;8.18;;;;;;;20.24;100.00;99693.09;1747660;82;21025;-70
2022/08/02 11:29:03;;;;;;;10.38;8.20;;;;;;;20.22;100.00;99699.05;1743099;82;21041;-70
2022/08/02 11:31:40;;;;;;;12.75;8.00;;;;;;;20.19;100.00;99693.97;1747768;82;21507;-69
2022/08/02 11:34:07;;;;;;;11.40;8.30;;;;;;;20.18;100.00;99693.12;1735451;81;21022;-71
2022/08/02 11:36:46;;;;;;;10.85;8.05;;;;;;;20.14;100.00;99693.02;1734612;82;20987;-70
2022/08/02 11:39:14;;;;;;;9.75;6.85;;;;;;;20.13;100.00;99695.34;1737914;81;21034;-68